sensor_id;sensor_type;location;lat;lon;timestamp;pressure;altitude;pressure_sealevel;temperature;humidity
64019;BME280;66942;52.138;5.216;2023-04-09T00:00:40;102683.99999999999;;;13.7;59.87
64019;BME280;66942;52.138;5.216;2023-04-09T00:02:17;102683.99999999999;;;13.62;60.14
64019;BME280;66942;52.138;5.216;2023-04-09T00:03:54;102683.99999999999;;;13.52;60.67
64019;BME280;66942;52.138;5.216;2023-04-09T00:07:06;102684.99999999999;;;13.59;60.4
64019;BME280;66942;52.138;5.216;2023-04-09T00:08:43;102678.0;;;13.54;60.41
64019;BME280;66942;52.138;5.216;2023-04-09T00:10:19;102682.0;;;13.93;59.42
64019;BME280;66942;52.138;5.216;2023-04-09T00:11:56;102680.0;;;13.68;60.44
64019;BME280;66942;52.138;5.216;2023-04-09T00:15:10;102682.0;;;13.64;60.23
64019;BME280;66942;52.138;5.216;2023-04-09T00:16:46;102678.0;;;13.78;60.02
64019;BME280;66942;52.138;5.216;2023-04-09T00:18:23;102678.0;;;13.96;59.47
64019;BME280;66942;52.138;5.216;2023-04-09T00:21:36;102671.0;;;14.35;58.45
64019;BME280;66942;52.138;5.216;2023-04-09T00:23:12;102673.0;;;14.37;58.36
64019;BME280;66942;52.138;5.216;2023-04-09T00:24:48;102674.0;;;14.52;57.95
64019;BME280;66942;52.138;5.216;2023-04-09T00:28:01;102672.0;;;14.19;58.94
64019;BME280;66942;52.138;5.216;2023-04-09T00:29:38;102673.0;;;14.1;59.09
64019;BME280;66942;52.138;5.216;2023-04-09T00:31:14;102666.00000000001;;;14.31;58.66
64019;BME280;66942;52.138;5.216;2023-04-09T00:32:50;102664.00000000001;;;14.48;58.04
64019;BME280;66942;52.138;5.216;2023-04-09T00:36:03;102665.00000000001;;;14.37;58.55
64019;BME280;66942;52.138;5.216;2023-04-09T00:37:40;102659.99999999999;;;14.45;58.44
64019;BME280;66942;52.138;5.216;2023-04-09T00:39:17;102661.99999999999;;;14.64;57.81
64019;BME280;66942;52.138;5.216;2023-04-09T00:42:30;102658.99999999999;;;14.84;57.01
64019;BME280;66942;52.138;5.216;2023-04-09T00:44:07;102654.0;;;14.83;56.68
64019;BME280;66942;52.138;5.216;2023-04-09T00:45:43;102657.0;;;14.33;58.11
64019;BME280;66942;52.138;5.216;2023-04-09T00:48:56;102655.0;;;14.73;56.73
64019;BME280;66942;52.138;5.216;2023-04-09T00:50:33;102651.0;;;14.9;56.06
64019;BME280;66942;52.138;5.216;2023-04-09T00:52:10;102651.0;;;14.77;56.82
64019;BME280;66942;52.138;5.216;2023-04-09T00:53:47;102656.0;;;14.66;57.31
64019;BME280;66942;52.138;5.216;2023-04-09T00:57:00;102654.0;;;14.76;56.81
64019;BME280;66942;52.138;5.216;2023-04-09T00:58:36;102651.0;;;15.16;55.95
64019;BME280;66942;52.138;5.216;2023-04-09T01:00:13;102651.0;;;14.85;56.53
64019;BME280;66942;52.138;5.216;2023-04-09T01:03:26;102649.0;;;14.66;57.19
64019;BME280;66942;52.138;5.216;2023-04-09T01:05:04;102645.0;;;14.83;56.86
64019;BME280;66942;52.138;5.216;2023-04-09T01:06:44;102646.0;;;15.03;56.25
64019;BME280;66942;52.138;5.216;2023-04-09T01:08:31;102642.0;;;15.09;55.96
64019;BME280;66942;52.138;5.216;2023-04-09T01:12:08;102642.0;;;15.3;55.5
64019;BME280;66942;52.138;5.216;2023-04-09T01:13:54;102644.0;;;14.92;56.46
64019;BME280;66942;52.138;5.216;2023-04-09T01:15:43;102641.00000000001;;;15.18;55.84
64019;BME280;66942;52.138;5.216;2023-04-09T01:17:32;102638.00000000001;;;15.25;55.08
64019;BME280;66942;52.138;5.216;2023-04-09T01:19:23;102638.00000000001;;;15.16;55.28
64019;BME280;66942;52.138;5.216;2023-04-09T01:21:10;102633.99999999999;;;15.12;55.32
64019;BME280;66942;52.138;5.216;2023-04-09T01:24:43;102628.0;;;15.05;55.84
64019;BME280;66942;52.138;5.216;2023-04-09T01:26:43;102632.0;;;15.01;55.44
64019;BME280;66942;52.138;5.216;2023-04-09T01:28:31;102629.0;;;14.96;55.98
64019;BME280;66942;52.138;5.216;2023-04-09T01:30:10;102631.0;;;15.13;55.23
64019;BME280;66942;52.138;5.216;2023-04-09T01:31:51;102629.0;;;15.09;55.46
64019;BME280;66942;52.138;5.216;2023-04-09T01:33:31;102630.0;;;15.21;55.52
64019;BME280;66942;52.138;5.216;2023-04-09T01:36:52;102630.0;;;15.07;56.12
64019;BME280;66942;52.138;5.216;2023-04-09T01:38:31;102630.0;;;15.08;55.26
64019;BME280;66942;52.138;5.216;2023-04-09T01:40:10;102629.0;;;14.93;55.97
64019;BME280;66942;52.138;5.216;2023-04-09T01:41:47;102626.0;;;15.0;55.84
64019;BME280;66942;52.138;5.216;2023-04-09T01:45:03;102627.0;;;15.01;56.33
64019;BME280;66942;52.138;5.216;2023-04-09T01:46:42;102622.0;;;15.17;55.7
64019;BME280;66942;52.138;5.216;2023-04-09T01:48:21;102628.0;;;15.05;56.29
64019;BME280;66942;52.138;5.216;2023-04-09T01:51:35;102624.0;;;14.89;56.71
64019;BME280;66942;52.138;5.216;2023-04-09T01:53:11;102632.0;;;15.03;56.83
64019;BME280;66942;52.138;5.216;2023-04-09T01:54:48;102624.0;;;15.15;56.18
64019;BME280;66942;52.138;5.216;2023-04-09T01:56:24;102628.0;;;15.28;55.87
64019;BME280;66942;52.138;5.216;2023-04-09T01:59:38;102629.0;;;15.29;55.53
64019;BME280;66942;52.138;5.216;2023-04-09T02:01:19;102631.0;;;15.36;55.46
64019;BME280;66942;52.138;5.216;2023-04-09T02:03:02;102625.0;;;15.47;54.98
64019;BME280;66942;52.138;5.216;2023-04-09T02:06:27;102626.0;;;15.4;55.34
64019;BME280;66942;52.138;5.216;2023-04-09T02:08:11;102623.0;;;15.51;54.96
64019;BME280;66942;52.138;5.216;2023-04-09T02:09:52;102624.0;;;15.23;55.79
64019;BME280;66942;52.138;5.216;2023-04-09T02:11:31;102622.0;;;15.2;55.8
64019;BME280;66942;52.138;5.216;2023-04-09T02:13:12;102619.0;;;15.01;56.48
64019;BME280;66942;52.138;5.216;2023-04-09T02:16:30;102621.0;;;15.11;56.31
64019;BME280;66942;52.138;5.216;2023-04-09T02:18:20;102620.0;;;14.94;56.61
64019;BME280;66942;52.138;5.216;2023-04-09T02:19:56;102622.0;;;15.06;56.47
64019;BME280;66942;52.138;5.216;2023-04-09T02:21:33;102619.0;;;15.31;55.62
64019;BME280;66942;52.138;5.216;2023-04-09T02:24:46;102618.0;;;15.13;55.77
64019;BME280;66942;52.138;5.216;2023-04-09T02:26:23;102615.00000000001;;;14.93;56.34
64019;BME280;66942;52.138;5.216;2023-04-09T02:27:59;102614.00000000001;;;15.27;55.54
64019;BME280;66942;52.138;5.216;2023-04-09T02:31:14;102613.00000000001;;;15.03;56.49
64019;BME280;66942;52.138;5.216;2023-04-09T02:32:51;102608.99999999999;;;15.15;55.78
64019;BME280;66942;52.138;5.216;2023-04-09T02:34:27;102609.99999999999;;;14.96;56.38
64019;BME280;66942;52.138;5.216;2023-04-09T02:37:40;102606.0;;;14.67;57.54
64019;BME280;66942;52.138;5.216;2023-04-09T02:39:17;102609.99999999999;;;14.95;56.7
64019;BME280;66942;52.138;5.216;2023-04-09T02:40:53;102606.0;;;15.24;55.83
64019;BME280;66942;52.138;5.216;2023-04-09T02:42:30;102604.0;;;15.06;56.52
64019;BME280;66942;52.138;5.216;2023-04-09T02:45:42;102605.0;;;15.26;56.06
64019;BME280;66942;52.138;5.216;2023-04-09T02:47:18;102607.0;;;15.53;55.28
64019;BME280;66942;52.138;5.216;2023-04-09T02:48:54;102603.0;;;15.55;55.16
64019;BME280;66942;52.138;5.216;2023-04-09T02:52:08;102607.0;;;15.65;54.94
64019;BME280;66942;52.138;5.216;2023-04-09T02:53:45;102600.0;;;15.26;55.76
64019;BME280;66942;52.138;5.216;2023-04-09T02:55:21;102598.0;;;15.04;56.75
64019;BME280;66942;52.138;5.216;2023-04-09T02:58:34;102594.0;;;14.63;57.66
64019;BME280;66942;52.138;5.216;2023-04-09T03:00:11;102592.0;;;14.68;57.99
64019;BME280;66942;52.138;5.216;2023-04-09T03:01:47;102593.0;;;14.94;57.12
64019;BME280;66942;52.138;5.216;2023-04-09T03:03:23;102595.0;;;14.96;57.13
64019;BME280;66942;52.138;5.216;2023-04-09T03:06:36;102594.0;;;15.35;55.87
64019;BME280;66942;52.138;5.216;2023-04-09T03:08:12;102593.0;;;15.36;55.67
64019;BME280;66942;52.138;5.216;2023-04-09T03:09:48;102592.0;;;14.82;56.97
64019;BME280;66942;52.138;5.216;2023-04-09T03:13:01;102592.0;;;14.68;57.33
64019;BME280;66942;52.138;5.216;2023-04-09T03:14:38;102589.00000000001;;;14.61;57.35
64019;BME280;66942;52.138;5.216;2023-04-09T03:16:15;102583.99999999999;;;14.77;57.09
64019;BME280;66942;52.138;5.216;2023-04-09T03:19:27;102583.0;;;15.03;56.49
64019;BME280;66942;52.138;5.216;2023-04-09T03:21:06;102579.0;;;15.1;56.4
64019;BME280;66942;52.138;5.216;2023-04-09T03:22:42;102578.0;;;15.04;56.81
64019;BME280;66942;52.138;5.216;2023-04-09T03:24:19;102580.0;;;14.97;56.92
64019;BME280;66942;52.138;5.216;2023-04-09T03:27:37;102577.0;;;15.17;56.38
64019;BME280;66942;52.138;5.216;2023-04-09T03:29:13;102580.0;;;15.07;56.83
64019;BME280;66942;52.138;5.216;2023-04-09T03:30:49;102575.0;;;15.39;55.9
64019;BME280;66942;52.138;5.216;2023-04-09T03:34:01;102574.0;;;14.81;57.69
64019;BME280;66942;52.138;5.216;2023-04-09T03:35:37;102575.0;;;15.0;57.04
64019;BME280;66942;52.138;5.216;2023-04-09T03:37:13;102574.0;;;15.01;56.71
64019;BME280;66942;52.138;5.216;2023-04-09T03:40:26;102572.0;;;14.9;57.18
64019;BME280;66942;52.138;5.216;2023-04-09T03:42:02;102570.0;;;14.99;57.1
64019;BME280;66942;52.138;5.216;2023-04-09T03:43:39;102573.0;;;15.03;57.03
64019;BME280;66942;52.138;5.216;2023-04-09T03:45:15;102573.0;;;15.18;56.57
64019;BME280;66942;52.138;5.216;2023-04-09T03:48:27;102574.0;;;15.21;56.43
64019;BME280;66942;52.138;5.216;2023-04-09T03:50:04;102571.0;;;15.07;56.86
64019;BME280;66942;52.138;5.216;2023-04-09T03:51:40;102569.0;;;15.42;56.03
64019;BME280;66942;52.138;5.216;2023-04-09T03:54:53;102570.0;;;15.14;56.62
64019;BME280;66942;52.138;5.216;2023-04-09T03:56:29;102568.0;;;14.84;57.7
64019;BME280;66942;52.138;5.216;2023-04-09T03:58:06;102567.0;;;15.41;55.91
64019;BME280;66942;52.138;5.216;2023-04-09T04:01:19;102567.0;;;15.32;55.88
64019;BME280;66942;52.138;5.216;2023-04-09T04:02:56;102568.0;;;14.96;56.99
64019;BME280;66942;52.138;5.216;2023-04-09T04:04:32;102567.0;;;15.12;56.46
64019;BME280;66942;52.138;5.216;2023-04-09T04:06:08;102564.00000000001;;;15.0;56.84
64019;BME280;66942;52.138;5.216;2023-04-09T04:09:20;102564.00000000001;;;15.41;55.72
64019;BME280;66942;52.138;5.216;2023-04-09T04:11:02;102559.99999999999;;;15.06;56.74
64019;BME280;66942;52.138;5.216;2023-04-09T04:12:38;102559.99999999999;;;15.25;55.95
64019;BME280;66942;52.138;5.216;2023-04-09T04:15:52;102558.99999999999;;;15.03;56.66
64019;BME280;66942;52.138;5.216;2023-04-09T04:17:28;102558.99999999999;;;14.95;56.85
64019;BME280;66942;52.138;5.216;2023-04-09T04:19:05;102558.99999999999;;;14.84;57.16
64019;BME280;66942;52.138;5.216;2023-04-09T04:22:18;102556.0;;;14.9;57.28
64019;BME280;66942;52.138;5.216;2023-04-09T04:23:54;102550.0;;;15.06;56.23
64019;BME280;66942;52.138;5.216;2023-04-09T04:25:30;102551.0;;;14.96;56.08
64019;BME280;66942;52.138;5.216;2023-04-09T04:27:06;102549.0;;;15.23;55.13
64019;BME280;66942;52.138;5.216;2023-04-09T04:30:19;102543.0;;;15.17;55.68
64019;BME280;66942;52.138;5.216;2023-04-09T04:31:56;102549.0;;;15.05;56.25
64019;BME280;66942;52.138;5.216;2023-04-09T04:33:33;102546.0;;;14.88;56.85
64019;BME280;66942;52.138;5.216;2023-04-09T04:36:45;102549.0;;;14.92;56.6
64019;BME280;66942;52.138;5.216;2023-04-09T04:38:21;102544.0;;;15.02;56.0
64019;BME280;66942;52.138;5.216;2023-04-09T04:39:59;102551.0;;;15.21;55.49
64019;BME280;66942;52.138;5.216;2023-04-09T04:43:13;102548.0;;;15.14;55.46
64019;BME280;66942;52.138;5.216;2023-04-09T04:44:49;102549.0;;;15.1;55.74
64019;BME280;66942;52.138;5.216;2023-04-09T04:46:25;102548.0;;;15.09;55.87
64019;BME280;66942;52.138;5.216;2023-04-09T04:48:02;102552.0;;;15.12;55.77
64019;BME280;66942;52.138;5.216;2023-04-09T04:51:15;102551.0;;;15.16;55.47
64019;BME280;66942;52.138;5.216;2023-04-09T04:52:52;102556.0;;;15.19;55.36
64019;BME280;66942;52.138;5.216;2023-04-09T04:54:28;102549.0;;;15.06;54.88
64019;BME280;66942;52.138;5.216;2023-04-09T04:57:40;102554.0;;;15.34;54.23
64019;BME280;66942;52.138;5.216;2023-04-09T04:59:16;102553.0;;;15.06;55.31
64019;BME280;66942;52.138;5.216;2023-04-09T05:00:52;102558.0;;;15.21;55.18
64019;BME280;66942;52.138;5.216;2023-04-09T05:04:05;102550.0;;;15.02;55.17
64019;BME280;66942;52.138;5.216;2023-04-09T05:05:41;102549.0;;;15.25;54.35
64019;BME280;66942;52.138;5.216;2023-04-09T05:07:17;102558.0;;;15.15;54.59
64019;BME280;66942;52.138;5.216;2023-04-09T05:08:53;102554.0;;;15.1;54.54
64019;BME280;66942;52.138;5.216;2023-04-09T05:12:05;102549.0;;;15.28;54.69
64019;BME280;66942;52.138;5.216;2023-04-09T05:13:42;102546.0;;;15.25;54.19
64019;BME280;66942;52.138;5.216;2023-04-09T05:15:18;102543.0;;;15.02;54.88
64019;BME280;66942;52.138;5.216;2023-04-09T05:18:31;102546.0;;;15.2;54.25
64019;BME280;66942;52.138;5.216;2023-04-09T05:20:08;102547.0;;;15.41;53.67
64019;BME280;66942;52.138;5.216;2023-04-09T05:21:45;102548.0;;;15.3;53.11
64019;BME280;66942;52.138;5.216;2023-04-09T05:24:57;102549.0;;;15.22;53.85
64019;BME280;66942;52.138;5.216;2023-04-09T05:26:33;102552.0;;;15.27;53.71
64019;BME280;66942;52.138;5.216;2023-04-09T05:28:09;102558.0;;;15.37;53.63
64019;BME280;66942;52.138;5.216;2023-04-09T05:31:23;102558.0;;;15.29;53.6
64019;BME280;66942;52.138;5.216;2023-04-09T05:32:59;102559.99999999999;;;15.12;53.92
64019;BME280;66942;52.138;5.216;2023-04-09T05:34:35;102567.0;;;15.43;53.32
64019;BME280;66942;52.138;5.216;2023-04-09T05:36:14;102558.99999999999;;;15.27;53.54
64019;BME280;66942;52.138;5.216;2023-04-09T05:39:27;102563.00000000001;;;15.15;53.13
64019;BME280;66942;52.138;5.216;2023-04-09T05:41:04;102559.99999999999;;;15.39;53.12
64019;BME280;66942;52.138;5.216;2023-04-09T05:42:40;102556.0;;;15.39;53.2
64019;BME280;66942;52.138;5.216;2023-04-09T05:45:52;102558.99999999999;;;15.34;53.39
64019;BME280;66942;52.138;5.216;2023-04-09T05:47:29;102556.0;;;15.33;53.57
64019;BME280;66942;52.138;5.216;2023-04-09T05:49:05;102558.99999999999;;;15.31;53.43
64019;BME280;66942;52.138;5.216;2023-04-09T05:52:24;102565.00000000001;;;15.24;54.09
64019;BME280;66942;52.138;5.216;2023-04-09T05:54:01;102567.0;;;15.41;53.16
64019;BME280;66942;52.138;5.216;2023-04-09T05:55:38;102566.00000000001;;;15.35;53.2
64019;BME280;66942;52.138;5.216;2023-04-09T05:57:14;102566.00000000001;;;15.36;53.25
64019;BME280;66942;52.138;5.216;2023-04-09T06:00:26;102570.0;;;15.45;52.99
64019;BME280;66942;52.138;5.216;2023-04-09T06:02:04;102567.0;;;15.43;53.04
64019;BME280;66942;52.138;5.216;2023-04-09T06:03:40;102565.00000000001;;;15.29;53.49
64019;BME280;66942;52.138;5.216;2023-04-09T06:06:54;102566.00000000001;;;15.31;53.13
64019;BME280;66942;52.138;5.216;2023-04-09T06:08:30;102570.0;;;15.27;53.71
64019;BME280;66942;52.138;5.216;2023-04-09T06:10:07;102573.0;;;15.27;53.94
64019;BME280;66942;52.138;5.216;2023-04-09T06:11:44;102572.0;;;15.33;53.61
64019;BME280;66942;52.138;5.216;2023-04-09T06:14:56;102576.0;;;15.32;53.66
64019;BME280;66942;52.138;5.216;2023-04-09T06:16:32;102572.0;;;15.17;53.2
64019;BME280;66942;52.138;5.216;2023-04-09T06:18:09;102575.0;;;15.3;52.51
64019;BME280;66942;52.138;5.216;2023-04-09T06:21:22;102573.0;;;15.28;53.08
64019;BME280;66942;52.138;5.216;2023-04-09T06:22:59;102577.0;;;15.4;52.53
64019;BME280;66942;52.138;5.216;2023-04-09T06:24:35;102577.0;;;15.3;52.44
64019;BME280;66942;52.138;5.216;2023-04-09T06:27:48;102575.0;;;15.25;53.23
64019;BME280;66942;52.138;5.216;2023-04-09T06:29:25;102579.0;;;15.35;53.21
64019;BME280;66942;52.138;5.216;2023-04-09T06:31:01;102586.99999999999;;;15.54;52.13
64019;BME280;66942;52.138;5.216;2023-04-09T06:32:37;102583.0;;;15.36;52.56
64019;BME280;66942;52.138;5.216;2023-04-09T06:35:49;102586.99999999999;;;15.55;52.17
64019;BME280;66942;52.138;5.216;2023-04-09T06:37:25;102588.00000000001;;;15.59;52.14
64019;BME280;66942;52.138;5.216;2023-04-09T06:39:02;102582.0;;;15.27;52.23
64019;BME280;66942;52.138;5.216;2023-04-09T06:42:14;102582.0;;;15.22;52.14
64019;BME280;66942;52.138;5.216;2023-04-09T06:43:50;102583.0;;;15.43;51.89
64019;BME280;66942;52.138;5.216;2023-04-09T06:45:27;102581.0;;;15.38;52.37
64019;BME280;66942;52.138;5.216;2023-04-09T06:48:40;102584.99999999999;;;15.14;53.91
64019;BME280;66942;52.138;5.216;2023-04-09T06:50:17;102589.00000000001;;;15.38;52.78
64019;BME280;66942;52.138;5.216;2023-04-09T06:51:54;102591.00000000001;;;15.36;52.77
64019;BME280;66942;52.138;5.216;2023-04-09T06:53:30;102588.00000000001;;;15.53;51.7
64019;BME280;66942;52.138;5.216;2023-04-09T06:56:43;102592.0;;;15.35;52.88
64019;BME280;66942;52.138;5.216;2023-04-09T06:58:19;102586.99999999999;;;15.55;52.24
64019;BME280;66942;52.138;5.216;2023-04-09T06:59:55;102588.00000000001;;;15.36;52.59
64019;BME280;66942;52.138;5.216;2023-04-09T07:03:08;102591.00000000001;;;15.29;52.66
64019;BME280;66942;52.138;5.216;2023-04-09T07:04:45;102588.00000000001;;;15.48;52.79
64019;BME280;66942;52.138;5.216;2023-04-09T07:06:21;102593.0;;;15.31;53.89
64019;BME280;66942;52.138;5.216;2023-04-09T07:09:33;102591.00000000001;;;15.42;52.28
64019;BME280;66942;52.138;5.216;2023-04-09T07:11:09;102593.0;;;15.3;53.22
64019;BME280;66942;52.138;5.216;2023-04-09T07:12:45;102593.0;;;15.43;52.29
64019;BME280;66942;52.138;5.216;2023-04-09T07:15:57;102592.0;;;15.53;50.94
64019;BME280;66942;52.138;5.216;2023-04-09T07:17:34;102591.00000000001;;;15.56;51.12
64019;BME280;66942;52.138;5.216;2023-04-09T07:19:11;102592.0;;;15.7;51.2
64019;BME280;66942;52.138;5.216;2023-04-09T07:20:47;102596.0;;;15.74;51.9
64019;BME280;66942;52.138;5.216;2023-04-09T07:24:02;102595.0;;;15.47;52.58
64019;BME280;66942;52.138;5.216;2023-04-09T07:25:39;102596.0;;;16.0;50.88
64019;BME280;66942;52.138;5.216;2023-04-09T07:27:15;102597.0;;;15.78;50.91
64019;BME280;66942;52.138;5.216;2023-04-09T07:30:28;102597.0;;;15.67;51.19
64019;BME280;66942;52.138;5.216;2023-04-09T07:32:04;102595.0;;;15.74;50.72
64019;BME280;66942;52.138;5.216;2023-04-09T07:33:41;102597.0;;;16.05;50.27
64019;BME280;66942;52.138;5.216;2023-04-09T07:36:54;102594.0;;;16.22;50.33
64019;BME280;66942;52.138;5.216;2023-04-09T07:38:30;102593.0;;;16.14;50.17
64019;BME280;66942;52.138;5.216;2023-04-09T07:40:07;102595.0;;;16.25;49.61
64019;BME280;66942;52.138;5.216;2023-04-09T07:41:43;102596.0;;;16.09;50.35
64019;BME280;66942;52.138;5.216;2023-04-09T07:44:56;102593.0;;;15.99;50.11
64019;BME280;66942;52.138;5.216;2023-04-09T07:46:32;102589.00000000001;;;16.14;49.51
64019;BME280;66942;52.138;5.216;2023-04-09T07:48:08;102595.0;;;15.79;50.57
64019;BME280;66942;52.138;5.216;2023-04-09T07:51:20;102594.0;;;15.7;51.23
64019;BME280;66942;52.138;5.216;2023-04-09T07:52:56;102589.00000000001;;;15.42;51.67
64019;BME280;66942;52.138;5.216;2023-04-09T07:54:33;102583.99999999999;;;15.99;51.02
64019;BME280;66942;52.138;5.216;2023-04-09T07:57:46;102594.0;;;15.81;53.1
64019;BME280;66942;52.138;5.216;2023-04-09T07:59:22;102588.00000000001;;;16.09;50.98
64019;BME280;66942;52.138;5.216;2023-04-09T08:00:58;102588.00000000001;;;16.13;49.84
64019;BME280;66942;52.138;5.216;2023-04-09T08:02:34;102584.99999999999;;;15.76;51.08
64019;BME280;66942;52.138;5.216;2023-04-09T08:05:47;102590.00000000001;;;15.91;50.64
64019;BME280;66942;52.138;5.216;2023-04-09T08:07:24;102590.00000000001;;;16.06;51.01
64019;BME280;66942;52.138;5.216;2023-04-09T08:09:00;102592.0;;;16.43;50.53
64019;BME280;66942;52.138;5.216;2023-04-09T08:12:13;102594.0;;;16.11;50.98
64019;BME280;66942;52.138;5.216;2023-04-09T08:13:50;102593.0;;;16.36;50.56
64019;BME280;66942;52.138;5.216;2023-04-09T08:15:26;102593.0;;;16.22;50.1
64019;BME280;66942;52.138;5.216;2023-04-09T08:18:39;102590.00000000001;;;16.5;50.02
64019;BME280;66942;52.138;5.216;2023-04-09T08:20:15;102586.99999999999;;;16.71;49.25
64019;BME280;66942;52.138;5.216;2023-04-09T08:21:51;102590.00000000001;;;16.7;49.25
64019;BME280;66942;52.138;5.216;2023-04-09T08:23:27;102582.0;;;17.07;48.96
64019;BME280;66942;52.138;5.216;2023-04-09T08:26:41;102583.0;;;16.97;48.75
64019;BME280;66942;52.138;5.216;2023-04-09T08:28:18;102592.0;;;16.91;47.91
64019;BME280;66942;52.138;5.216;2023-04-09T08:29:54;102588.00000000001;;;16.75;48.2
64019;BME280;66942;52.138;5.216;2023-04-09T08:33:07;102590.00000000001;;;17.2;46.83
64019;BME280;66942;52.138;5.216;2023-04-09T08:34:43;102588.00000000001;;;17.22;47.75
64019;BME280;66942;52.138;5.216;2023-04-09T08:36:19;102584.99999999999;;;17.27;46.58
64019;BME280;66942;52.138;5.216;2023-04-09T08:39:34;102580.0;;;17.43;45.83
64019;BME280;66942;52.138;5.216;2023-04-09T08:41:16;102581.0;;;17.47;46.65
64019;BME280;66942;52.138;5.216;2023-04-09T08:42:54;102582.0;;;17.27;46.18
64019;BME280;66942;52.138;5.216;2023-04-09T08:44:31;102580.0;;;17.61;46.13
64019;BME280;66942;52.138;5.216;2023-04-09T08:47:45;102580.0;;;17.61;46.01
64019;BME280;66942;52.138;5.216;2023-04-09T08:49:24;102574.0;;;17.79;45.75
64019;BME280;66942;52.138;5.216;2023-04-09T08:51:00;102573.0;;;18.05;45.19
64019;BME280;66942;52.138;5.216;2023-04-09T08:54:15;102579.0;;;17.68;45.32
64019;BME280;66942;52.138;5.216;2023-04-09T08:55:51;102572.0;;;17.93;43.67
64019;BME280;66942;52.138;5.216;2023-04-09T08:57:27;102574.0;;;18.32;43.75
64019;BME280;66942;52.138;5.216;2023-04-09T08:59:03;102576.0;;;18.47;45.49
64019;BME280;66942;52.138;5.216;2023-04-09T09:02:16;102572.0;;;18.18;44.07
64019;BME280;66942;52.138;5.216;2023-04-09T09:03:55;102572.0;;;18.77;46.25
64019;BME280;66942;52.138;5.216;2023-04-09T09:05:35;102568.0;;;19.04;43.35
64019;BME280;66942;52.138;5.216;2023-04-09T09:09:03;102565.00000000001;;;19.25;43.37
64019;BME280;66942;52.138;5.216;2023-04-09T09:10:42;102567.0;;;19.66;41.86
64019;BME280;66942;52.138;5.216;2023-04-09T09:12:36;102567.0;;;19.27;40.99
64019;BME280;66942;52.138;5.216;2023-04-09T09:14:15;102563.00000000001;;;19.5;41.83
64019;BME280;66942;52.138;5.216;2023-04-09T09:15:54;102561.99999999999;;;19.21;42.59
64019;BME280;66942;52.138;5.216;2023-04-09T09:19:31;102566.00000000001;;;19.77;40.21
64019;BME280;66942;52.138;5.216;2023-04-09T09:21:10;102555.0;;;19.52;40.57
64019;BME280;66942;52.138;5.216;2023-04-09T09:22:48;102558.99999999999;;;19.45;41.38
64019;BME280;66942;52.138;5.216;2023-04-09T09:24:25;102558.0;;;19.66;43.25
64019;BME280;66942;52.138;5.216;2023-04-09T09:27:46;102557.0;;;19.75;42.55
64019;BME280;66942;52.138;5.216;2023-04-09T09:29:24;102552.0;;;20.0;40.78
64019;BME280;66942;52.138;5.216;2023-04-09T09:31:07;102551.0;;;20.06;40.85
64019;BME280;66942;52.138;5.216;2023-04-09T09:32:44;102548.0;;;20.28;42.2
64019;BME280;66942;52.138;5.216;2023-04-09T09:35:59;102545.0;;;20.6;39.56
64019;BME280;66942;52.138;5.216;2023-04-09T09:37:35;102538.00000000001;;;20.73;39.74
64019;BME280;66942;52.138;5.216;2023-04-09T09:39:13;102539.00000000001;;;20.62;39.29
64019;BME280;66942;52.138;5.216;2023-04-09T09:40:51;102538.00000000001;;;20.45;39.25
64019;BME280;66942;52.138;5.216;2023-04-09T09:44:06;102542.0;;;20.73;38.31
64019;BME280;66942;52.138;5.216;2023-04-09T09:45:43;102531.0;;;20.54;39.1
64019;BME280;66942;52.138;5.216;2023-04-09T09:47:22;102539.00000000001;;;19.95;39.68
64019;BME280;66942;52.138;5.216;2023-04-09T09:50:37;102531.0;;;20.72;42.76
64019;BME280;66942;52.138;5.216;2023-04-09T09:52:13;102533.99999999999;;;20.7;39.72
64019;BME280;66942;52.138;5.216;2023-04-09T09:53:50;102529.0;;;20.96;39.69
64019;BME280;66942;52.138;5.216;2023-04-09T09:55:31;102530.0;;;20.91;37.96
64019;BME280;66942;52.138;5.216;2023-04-09T09:58:48;102522.0;;;20.98;39.67
64019;BME280;66942;52.138;5.216;2023-04-09T10:00:31;102520.0;;;21.29;38.35
64019;BME280;66942;52.138;5.216;2023-04-09T10:02:17;102526.0;;;21.35;38.78
64019;BME280;66942;52.138;5.216;2023-04-09T10:03:55;102524.0;;;21.25;37.71
64019;BME280;66942;52.138;5.216;2023-04-09T10:07:10;102522.0;;;21.18;38.86
64019;BME280;66942;52.138;5.216;2023-04-09T10:08:48;102517.0;;;21.18;38.75
64019;BME280;66942;52.138;5.216;2023-04-09T10:10:26;102511.99999999999;;;21.18;38.61
64019;BME280;66942;52.138;5.216;2023-04-09T10:13:45;102509.99999999999;;;21.13;37.06
64019;BME280;66942;52.138;5.216;2023-04-09T10:15:25;102506.0;;;21.04;38.35
64019;BME280;66942;52.138;5.216;2023-04-09T10:17:04;102502.0;;;20.95;38.35
64019;BME280;66942;52.138;5.216;2023-04-09T10:18:41;102494.0;;;20.98;38.69
64019;BME280;66942;52.138;5.216;2023-04-09T10:22:04;102497.0;;;21.22;39.24
64019;BME280;66942;52.138;5.216;2023-04-09T10:23:43;102494.0;;;21.21;39.62
64019;BME280;66942;52.138;5.216;2023-04-09T10:25:23;102494.0;;;21.61;37.93
64019;BME280;66942;52.138;5.216;2023-04-09T10:27:08;102495.0;;;21.51;37.14
64019;BME280;66942;52.138;5.216;2023-04-09T10:30:30;102491.00000000001;;;21.49;38.31
64019;BME280;66942;52.138;5.216;2023-04-09T10:32:06;102483.99999999999;;;21.73;37.72
64019;BME280;66942;52.138;5.216;2023-04-09T10:33:44;102482.0;;;21.24;39.97
64019;BME280;66942;52.138;5.216;2023-04-09T10:35:24;102482.0;;;21.54;37.29
64019;BME280;66942;52.138;5.216;2023-04-09T10:38:38;102471.0;;;21.9;37.89
64019;BME280;66942;52.138;5.216;2023-04-09T10:40:18;102475.0;;;22.08;37.92
64019;BME280;66942;52.138;5.216;2023-04-09T10:41:55;102472.0;;;22.26;37.85